Canakkale Airport


Codes: LTBH/CKZ
Name: Canakkale Airport
City: Canakkale
Country: Turkey
Elevation: 23 ft.
Wikipedia:

Photos at Canakkale Airport


   Photos courtesy of SpottingLog. You can add your own sightings and photos by signing up for a free trial today.



No photos found.

Weather at Canakkale Airport


Time (UTC)DescriptionTempratureWindCloud coverageVisibilityPressureHumidity
13-Jun-2024 03:00Clear Sky23°C4 mph, E10%10000m1011hPa59%
13-Jun-2024 06:00Few Clouds28°C2 mph, NE12%10000m1012hPa44%
13-Jun-2024 09:00Clear Sky36°C9 mph, NW5%10000m1013hPa25%
13-Jun-2024 12:00Few Clouds36°C11 mph, W12%10000m1012hPa24%
13-Jun-2024 15:00Scattered Clouds35°C9 mph, SW36%10000m1011hPa25%
13-Jun-2024 18:00Scattered Clouds27°C7 mph, SW37%10000m1012hPa46%
13-Jun-2024 21:00Broken Clouds26°C4 mph, SW76%10000m1012hPa42%
14-Jun-2024 00:00Broken Clouds26°C4 mph, SE73%10000m1011hPa41%
14-Jun-2024 03:00Few Clouds24°C0 mph, NW17%10000m1011hPa46%
14-Jun-2024 06:00Broken Clouds31°C2 mph, E57%10000m1010hPa30%
14-Jun-2024 09:00Light Rain26°C11 mph, N89%10000m1010hPa62%
14-Jun-2024 12:00Overcast Clouds34°C11 mph, NE89%10000m1009hPa33%
14-Jun-2024 15:00Light Rain27°C16 mph, E58%10000m1008hPa52%
14-Jun-2024 18:00Moderate Rain20°C13 mph, NE65%4486m1011hPa97%
14-Jun-2024 21:00Light Rain19°C4 mph, E61%10000m1013hPa93%
15-Jun-2024 00:00Scattered Clouds18°C7 mph, NE31%10000m1013hPa93%
15-Jun-2024 03:00Broken Clouds19°C7 mph, NE57%10000m1013hPa89%
15-Jun-2024 06:00Scattered Clouds22°C13 mph, NE35%10000m1014hPa64%
15-Jun-2024 09:00Clear Sky27°C13 mph, NE1%10000m1014hPa48%
15-Jun-2024 12:00Clear Sky29°C13 mph, NE0%10000m1013hPa40%
15-Jun-2024 15:00Clear Sky28°C11 mph, NE0%10000m1012hPa44%
15-Jun-2024 18:00Clear Sky23°C7 mph, E0%10000m1013hPa61%
15-Jun-2024 21:00Clear Sky20°C7 mph, NE0%10000m1014hPa69%
16-Jun-2024 00:00Clear Sky19°C9 mph, NE0%10000m1014hPa82%
16-Jun-2024 03:00Clear Sky18°C7 mph, NE0%10000m1014hPa93%
16-Jun-2024 06:00Clear Sky24°C13 mph, NE0%10000m1014hPa59%
16-Jun-2024 09:00Clear Sky28°C18 mph, NE0%10000m1014hPa41%
16-Jun-2024 12:00Clear Sky30°C16 mph, NE0%10000m1013hPa33%
16-Jun-2024 15:00Scattered Clouds29°C16 mph, NE41%10000m1013hPa37%
16-Jun-2024 18:00Broken Clouds23°C7 mph, E67%10000m1014hPa52%
16-Jun-2024 21:00Broken Clouds20°C4 mph, NE61%10000m1014hPa68%
17-Jun-2024 00:00Scattered Clouds19°C7 mph, NE35%10000m1015hPa73%
17-Jun-2024 03:00Clear Sky19°C7 mph, NE0%10000m1015hPa79%
17-Jun-2024 06:00Clear Sky26°C11 mph, NE3%10000m1016hPa47%
17-Jun-2024 09:00Clear Sky30°C18 mph, NE2%10000m1016hPa35%
17-Jun-2024 12:00Clear Sky32°C16 mph, NE1%10000m1015hPa29%
17-Jun-2024 15:00Few Clouds31°C18 mph, E24%10000m1014hPa30%
17-Jun-2024 18:00Few Clouds25°C11 mph, E23%10000m1015hPa43%
17-Jun-2024 21:00Few Clouds21°C7 mph, NE17%10000m1015hPa60%
18-Jun-2024 00:00Few Clouds20°C9 mph, NE11%10000m1016hPa70%